Time;durP1;ratioP1;P1;durP2;ratioP2;P2;SDS_P1;SDS_P2;PMS_P1;PMS_P2;Temp;Humidity;BMP_temperature;BMP_pressure;BME280_temperature;BME280_humidity;BME280_pressure;Samples;Min_cycle;Max_cycle;Signal;HPM_P1;HPM_P2
2023/12/25 00:02:56;;;;;;;5.05;4.93;;;;;;;;;;6317394;28;20043;-88
2023/12/25 00:05:59;;;;;;;4.53;4.43;;;;;;;;;;6298569;28;20496;-88
2023/12/25 00:09:00;;;;;;;6.15;5.95;;;;;;;;;;6286688;28;20116;-88
2023/12/25 00:12:02;;;;;;;5.90;5.70;;;;;;;;;;6314869;28;20043;-88
2023/12/25 00:15:04;;;;;;;5.32;5.13;;;;;;;;;;6322129;28;20055;-88
2023/12/25 00:18:06;;;;;;;5.47;5.28;;;;;;;;;;6317740;28;20036;-88
2023/12/25 00:21:08;;;;;;;5.25;5.07;;;;;;;;;;6319610;28;20039;-88
2023/12/25 00:24:10;;;;;;;5.53;5.28;;;;;;;;;;6315386;28;20039;-88
2023/12/25 00:27:11;;;;;;;4.90;4.70;;;;;;;;;;6301837;28;20127;-88
2023/12/25 00:30:13;;;;;;;4.53;4.43;;;;;;;;;;6321952;28;20035;-88
2023/12/25 00:33:17;;;;;;;5.03;4.88;;;;;;;;;;6292766;28;20056;-88
2023/12/25 00:36:19;;;;;;;4.32;4.22;;;;;;;;;;6318059;28;20044;-88
2023/12/25 00:39:21;;;;;;;6.13;5.80;;;;;;;;;;6306975;28;20039;-88
2023/12/25 00:42:23;;;;;;;4.30;4.20;;;;;;;;;;6299979;28;20044;-88
2023/12/25 00:45:24;;;;;;;4.82;4.72;;;;;;;;;;6302944;28;20082;-87
2023/12/25 00:48:26;;;;;;;4.63;4.53;;;;;;;;;;6314578;28;20782;-88
2023/12/25 00:51:28;;;;;;;4.95;4.85;;;;;;;;;;6295784;28;20040;-88
2023/12/25 00:54:31;;;;;;;4.85;4.75;;;;;;;;;;6303586;28;20421;-87
2023/12/25 00:57:33;;;;;;;4.45;4.35;;;;;;;;;;6305860;28;20101;-88
2023/12/25 01:00:36;;;;;;;5.07;4.95;;;;;;;;;;6314750;28;20070;-87
2023/12/25 01:03:38;;;;;;;7.22;6.72;;;;;;;;;;6303878;28;20051;-88
2023/12/25 01:06:40;;;;;;;9.27;4.70;;;;;;;;;;6312535;28;20162;-88
2023/12/25 01:09:41;;;;;;;4.32;4.22;;;;;;;;;;6301285;28;20402;-87
2023/12/25 01:12:43;;;;;;;5.53;5.22;;;;;;;;;;6307842;28;20040;-89
2023/12/25 01:15:45;;;;;;;4.57;4.47;;;;;;;;;;6299688;28;20488;-88
2023/12/25 01:18:47;;;;;;;6.00;5.45;;;;;;;;;;6315316;28;20047;-88
2023/12/25 01:21:49;;;;;;;4.80;4.70;;;;;;;;;;6298980;28;20836;-89
2023/12/25 01:24:51;;;;;;;4.82;4.72;;;;;;;;;;6319145;28;20024;-89
2023/12/25 01:27:53;;;;;;;5.20;4.90;;;;;;;;;;6304453;28;20481;-90
2023/12/25 01:30:55;;;;;;;5.68;5.47;;;;;;;;;;6274325;28;20437;-88
2023/12/25 01:33:58;;;;;;;5.15;4.93;;;;;;;;;;6319711;28;20039;-89
2023/12/25 01:37:00;;;;;;;4.88;4.78;;;;;;;;;;6286403;28;20083;-90
2023/12/25 01:40:02;;;;;;;4.90;4.72;;;;;;;;;;6286363;28;20044;-90
2023/12/25 01:43:04;;;;;;;5.55;5.35;;;;;;;;;;6311354;28;20039;-90
2023/12/25 01:46:06;;;;;;;4.80;4.60;;;;;;;;;;6298195;28;20076;-91
2023/12/25 01:49:08;;;;;;;4.63;4.50;;;;;;;;;;6295337;28;20089;-90
2023/12/25 01:52:10;;;;;;;4.43;4.25;;;;;;;;;;6324253;28;20074;-90
2023/12/25 01:55:15;;;;;;;5.00;4.90;;;;;;;;;;6328349;28;20052;-89
2023/12/25 01:58:17;;;;;;;9.20;4.78;;;;;;;;;;6325645;28;20268;-90
2023/12/25 02:01:19;;;;;;;5.55;5.25;;;;;;;;;;6309018;28;20036;-90
2023/12/25 02:04:21;;;;;;;13.05;4.95;;;;;;;;;;6326294;28;20036;-90
2023/12/25 02:07:23;;;;;;;4.28;4.18;;;;;;;;;;6300907;28;20990;-90
2023/12/25 02:10:27;;;;;;;4.28;4.18;;;;;;;;;;6305782;28;20516;-91
2023/12/25 02:13:29;;;;;;;4.63;4.53;;;;;;;;;;6285173;28;20047;-91
2023/12/25 02:16:35;;;;;;;5.25;5.07;;;;;;;;;;6311163;28;20077;-91
2023/12/25 02:19:38;;;;;;;5.38;5.18;;;;;;;;;;6327842;28;20036;-91
2023/12/25 02:22:41;;;;;;;4.47;4.38;;;;;;;;;;6329197;28;20050;-92
2023/12/25 02:25:52;;;;;;;4.50;4.40;;;;;;;;;;6289185;28;20052;-91
2023/12/25 02:28:53;;;;;;;;;;;;;;;;;;6309703;28;20035;-91
2023/12/25 02:31:55;;;;;;;7.32;5.03;;;;;;;;;;6328964;28;20286;-93
2023/12/25 02:34:57;;;;;;;8.77;5.07;;;;;;;;;;6315940;28;20497;-91
2023/12/25 02:37:59;;;;;;;6.28;4.85;;;;;;;;;;6309108;28;20061;-92
2023/12/25 02:41:00;;;;;;;4.93;4.63;;;;;;;;;;6329923;28;20044;-92
2023/12/25 02:44:02;;;;;;;5.45;5.25;;;;;;;;;;6302399;28;20044;-91
2023/12/25 02:47:05;;;;;;;5.05;4.95;;;;;;;;;;6301047;28;20044;-94
2023/12/25 02:50:07;;;;;;;4.60;4.50;;;;;;;;;;6321215;28;20032;-92
2023/12/25 02:53:08;;;;;;;4.32;4.22;;;;;;;;;;6288360;28;20039;-91
2023/12/25 02:56:10;;;;;;;5.68;5.38;;;;;;;;;;6314544;28;20040;-91
2023/12/25 02:59:12;;;;;;;4.95;4.72;;;;;;;;;;6306944;28;20050;-91
2023/12/25 03:02:16;;;;;;;3.97;3.88;;;;;;;;;;6321566;28;20042;-91
2023/12/25 03:05:18;;;;;;;4.63;4.53;;;;;;;;;;6311428;28;20075;-91
2023/12/25 03:08:20;;;;;;;4.97;4.82;;;;;;;;;;6304265;28;20455;-92
2023/12/25 03:11:22;;;;;;;4.22;4.13;;;;;;;;;;6306030;28;20698;-92
2023/12/25 03:14:24;;;;;;;4.50;4.40;;;;;;;;;;6303352;28;20036;-92
2023/12/25 03:17:26;;;;;;;3.92;3.83;;;;;;;;;;6285826;28;20048;-89
2023/12/25 03:20:28;;;;;;;5.18;4.97;;;;;;;;;;6303494;28;20048;-89
2023/12/25 03:23:29;;;;;;;4.45;3.95;;;;;;;;;;6310349;28;20126;-89
2023/12/25 03:26:32;;;;;;;4.30;4.20;;;;;;;;;;6323270;28;20047;-89
2023/12/25 03:29:34;;;;;;;4.30;4.20;;;;;;;;;;6293232;28;20048;-89
2023/12/25 03:32:36;;;;;;;5.05;4.85;;;;;;;;;;6307700;28;20413;-89
2023/12/25 03:35:37;;;;;;;4.20;4.10;;;;;;;;;;6296545;28;20044;-90
2023/12/25 03:38:39;;;;;;;4.00;3.90;;;;;;;;;;6306353;28;20044;-89
2023/12/25 03:41:41;;;;;;;5.18;4.97;;;;;;;;;;6303718;28;20500;-89
2023/12/25 03:44:43;;;;;;;4.25;4.15;;;;;;;;;;6319066;28;20115;-88
2023/12/25 03:47:46;;;;;;;4.57;4.47;;;;;;;;;;6319724;28;20050;-89
2023/12/25 03:50:48;;;;;;;4.00;3.90;;;;;;;;;;6300029;28;20066;-89
2023/12/25 03:53:49;;;;;;;5.05;4.85;;;;;;;;;;6325356;28;20044;-89
2023/12/25 03:56:51;;;;;;;5.70;5.25;;;;;;;;;;6309288;28;20040;-89
2023/12/25 03:59:53;;;;;;;4.63;4.43;;;;;;;;;;6306484;28;20497;-88
2023/12/25 04:02:56;;;;;;;4.85;4.65;;;;;;;;;;6310057;28;20044;-89
2023/12/25 04:05:58;;;;;;;4.80;4.70;;;;;;;;;;6307521;28;20051;-88
2023/12/25 04:09:00;;;;;;;4.45;4.35;;;;;;;;;;6307151;28;20040;-89
2023/12/25 04:12:02;;;;;;;4.13;4.03;;;;;;;;;;6308041;28;20051;-89
2023/12/25 04:15:05;;;;;;;5.00;4.80;;;;;;;;;;6302320;28;20072;-89
2023/12/25 04:18:07;;;;;;;4.93;4.72;;;;;;;;;;6308126;28;20066;-89
2023/12/25 04:21:19;;;;;;;4.45;4.35;;;;;;;;;;6323618;28;20047;-89
2023/12/25 04:24:21;;;;;;;4.68;4.30;;;;;;;;;;6303692;28;20043;-89
2023/12/25 04:27:22;;;;;;;6.05;5.75;;;;;;;;;;6304501;28;20044;-89
2023/12/25 04:30:24;;;;;;;5.10;4.80;;;;;;;;;;6302940;28;20092;-89
2023/12/25 04:33:27;;;;;;;4.88;4.72;;;;;;;;;;6302942;28;20093;-90
2023/12/25 04:36:29;;;;;;;4.88;4.78;;;;;;;;;;6321767;28;20378;-90
2023/12/25 04:39:33;;;;;;;4.15;4.05;;;;;;;;;;6298366;28;20490;-90
2023/12/25 04:42:35;;;;;;;5.45;4.93;;;;;;;;;;6303030;28;20040;-90
2023/12/25 04:45:37;;;;;;;5.00;4.80;;;;;;;;;;6304844;28;20486;-90
2023/12/25 04:48:39;;;;;;;4.60;4.40;;;;;;;;;;6277837;28;20048;-90
2023/12/25 04:51:41;;;;;;;4.40;4.30;;;;;;;;;;6281918;28;20532;-89
2023/12/25 04:54:44;;;;;;;5.35;5.07;;;;;;;;;;6303103;28;20044;-90
2023/12/25 04:57:46;;;;;;;4.57;4.47;;;;;;;;;;6296694;28;20059;-89
2023/12/25 05:00:47;;;;;;;3.97;3.88;;;;;;;;;;6312390;28;20329;-90
2023/12/25 05:03:49;;;;;;;4.80;4.70;;;;;;;;;;6307337;28;20055;-89
2023/12/25 05:06:51;;;;;;;4.72;4.63;;;;;;;;;;6295614;28;20045;-90
2023/12/25 05:09:52;;;;;;;4.10;4.00;;;;;;;;;;6321357;28;20055;-89
2023/12/25 05:12:54;;;;;;;4.40;4.30;;;;;;;;;;6318808;28;20052;-89
2023/12/25 05:15:56;;;;;;;4.70;4.57;;;;;;;;;;6321088;28;20055;-88
2023/12/25 05:18:58;;;;;;;4.72;4.53;;;;;;;;;;6325503;28;20046;-87
2023/12/25 05:22:02;;;;;;;4.40;4.30;;;;;;;;;;6307942;28;20523;-87
2023/12/25 05:25:04;;;;;;;4.75;4.65;;;;;;;;;;6323380;28;20032;-87
2023/12/25 05:28:06;;;;;;;4.47;4.38;;;;;;;;;;6324452;28;20044;-87
2023/12/25 05:31:09;;;;;;;4.65;4.55;;;;;;;;;;6328649;28;20461;-87
2023/12/25 05:34:12;;;;;;;5.03;4.82;;;;;;;;;;6297058;28;20494;-90
2023/12/25 05:37:13;;;;;;;4.97;4.78;;;;;;;;;;6300279;28;20044;-90
2023/12/25 05:40:16;;;;;;;5.75;5.55;;;;;;;;;;6304023;28;20407;-93
2023/12/25 05:43:19;;;;;;;5.90;5.70;;;;;;;;;;6316895;28;20452;-92
2023/12/25 05:46:24;;;;;;;5.53;5.15;;;;;;;;;;6327361;28;20636;-92
2023/12/25 05:49:26;;;;;;;5.05;4.80;;;;;;;;;;6309314;28;20840;-94
2023/12/25 05:52:28;;;;;;;5.50;5.20;;;;;;;;;;6324700;28;20043;-94
2023/12/25 05:55:31;;;;;;;5.43;5.22;;;;;;;;;;6312825;28;20405;-94
2023/12/25 05:58:33;;;;;;;5.70;5.50;;;;;;;;;;6297525;28;20524;-92
2023/12/25 06:01:35;;;;;;;4.97;4.78;;;;;;;;;;6322915;28;20371;-93
2023/12/25 06:04:37;;;;;;;6.68;5.95;;;;;;;;;;6311812;28;20055;-92
2023/12/25 06:07:39;;;;;;;5.03;4.93;;;;;;;;;;6304622;28;20040;-91
2023/12/25 06:10:41;;;;;;;6.28;6.07;;;;;;;;;;6332492;28;20611;-91
2023/12/25 06:13:45;;;;;;;5.82;5.63;;;;;;;;;;6310436;28;20043;-89
2023/12/25 06:16:48;;;;;;;5.50;5.30;;;;;;;;;;6306147;28;20076;-90
2023/12/25 06:19:50;;;;;;;6.47;6.22;;;;;;;;;;6324207;28;20052;-90
2023/12/25 06:22:52;;;;;;;5.93;5.72;;;;;;;;;;6324662;28;20418;-89
2023/12/25 06:25:54;;;;;;;5.53;5.32;;;;;;;;;;6305380;28;20044;-90
2023/12/25 06:28:56;;;;;;;6.57;6.25;;;;;;;;;;6313748;28;20370;-90
2023/12/25 06:31:58;;;;;;;5.50;5.30;;;;;;;;;;6312403;28;20044;-89
2023/12/25 06:35:00;;;;;;;5.32;5.22;;;;;;;;;;6321459;28;20051;-90
2023/12/25 06:38:01;;;;;;;13.48;6.05;;;;;;;;;;6332434;28;20046;-89
2023/12/25 06:41:03;;;;;;;5.18;5.07;;;;;;;;;;6302225;28;20077;-89
2023/12/25 06:44:06;;;;;;;5.28;5.07;;;;;;;;;;6322750;28;20465;-89
2023/12/25 06:47:07;;;;;;;5.40;5.20;;;;;;;;;;6326915;28;20031;-89
2023/12/25 06:50:09;;;;;;;5.22;5.03;;;;;;;;;;6331846;28;20036;-89
2023/12/25 06:53:11;;;;;;;5.90;5.70;;;;;;;;;;6309927;28;20040;-89
2023/12/25 06:56:13;;;;;;;5.60;5.40;;;;;;;;;;6330756;28;20040;-89
2023/12/25 06:59:15;;;;;;;5.40;5.20;;;;;;;;;;6305654;28;20496;-89
2023/12/25 07:02:16;;;;;;;5.35;5.15;;;;;;;;;;6330116;28;20088;-90
2023/12/25 07:05:18;;;;;;;5.38;5.25;;;;;;;;;;6330575;28;20039;-90
2023/12/25 07:08:20;;;;;;;7.20;5.85;;;;;;;;;;6328120;28;20046;-89
2023/12/25 07:11:22;;;;;;;4.72;4.63;;;;;;;;;;6324353;28;20567;-89
2023/12/25 07:14:24;;;;;;;4.85;4.68;;;;;;;;;;6284666;28;20040;-89
2023/12/25 07:17:25;;;;;;;4.90;4.80;;;;;;;;;;6327125;28;20055;-91
2023/12/25 07:20:27;;;;;;;5.40;5.10;;;;;;;;;;6323278;28;20924;-90
2023/12/25 07:23:29;;;;;;;4.82;4.70;;;;;;;;;;6325818;28;20078;-89
2023/12/25 07:26:31;;;;;;;4.57;4.47;;;;;;;;;;6324575;28;20594;-90
2023/12/25 07:29:32;;;;;;;5.43;5.22;;;;;;;;;;6329599;28;20047;-89
2023/12/25 07:32:35;;;;;;;5.03;4.82;;;;;;;;;;6308501;28;20557;-88
2023/12/25 07:35:37;;;;;;;4.75;4.65;;;;;;;;;;6311233;28;20413;-90
2023/12/25 07:38:41;;;;;;;6.05;5.70;;;;;;;;;;6310994;28;20137;-91
2023/12/25 07:41:46;;;;;;;5.10;5.00;;;;;;;;;;6325875;28;20078;-93
2023/12/25 07:44:49;;;;;;;5.80;5.60;;;;;;;;;;6309358;28;20148;-93
2023/12/25 07:47:52;;;;;;;5.25;5.15;;;;;;;;;;6307195;28;20122;-95
2023/12/25 07:50:54;;;;;;;5.38;4.93;;;;;;;;;;6311281;28;20039;-94
2023/12/25 07:53:57;;;;;;;5.18;5.07;;;;;;;;;;6288932;28;20136;-95
2023/12/25 07:57:03;;;;;;;5.60;5.40;;;;;;;;;;6310939;28;20043;-91
2023/12/25 08:00:07;;;;;;;6.18;5.88;;;;;;;;;;6330326;28;20091;-92
2023/12/25 08:03:12;;;;;;;4.97;4.88;;;;;;;;;;6329599;28;20055;-92
2023/12/25 08:06:15;;;;;;;5.80;5.60;;;;;;;;;;6326632;28;20436;-91
2023/12/25 08:09:17;;;;;;;5.65;5.45;;;;;;;;;;6328998;28;20551;-90
2023/12/25 08:12:19;;;;;;;5.63;5.43;;;;;;;;;;6312765;28;20161;-90
2023/12/25 08:15:20;;;;;;;16.50;5.05;;;;;;;;;;6326497;28;20047;-89
2023/12/25 08:18:22;;;;;;;4.85;4.75;;;;;;;;;;6307266;28;20783;-89
2023/12/25 08:21:24;;;;;;;4.82;4.72;;;;;;;;;;6313480;28;20031;-90
2023/12/25 08:24:25;;;;;;;5.25;5.05;;;;;;;;;;6292567;28;20144;-90
2023/12/25 08:27:27;;;;;;;5.78;5.57;;;;;;;;;;6319797;28;20128;-89
2023/12/25 08:30:29;;;;;;;7.80;5.75;;;;;;;;;;6321949;28;20570;-89
2023/12/25 08:33:31;;;;;;;5.28;5.18;;;;;;;;;;6319960;28;20036;-90
2023/12/25 08:36:33;;;;;;;5.05;4.95;;;;;;;;;;6327509;28;20172;-90
2023/12/25 08:39:35;;;;;;;5.05;4.85;;;;;;;;;;6319122;28;20064;-90
2023/12/25 08:42:37;;;;;;;5.72;5.38;;;;;;;;;;6303761;28;20497;-90
2023/12/25 08:45:38;;;;;;;5.03;4.93;;;;;;;;;;6325197;28;20073;-90
2023/12/25 08:48:40;;;;;;;5.45;4.97;;;;;;;;;;6297952;28;20508;-91
2023/12/25 08:51:42;;;;;;;5.72;5.53;;;;;;;;;;6326031;28;20534;-91
2023/12/25 08:54:45;;;;;;;7.50;5.75;;;;;;;;;;6320050;28;20512;-90
2023/12/25 08:57:47;;;;;;;4.70;4.60;;;;;;;;;;6326286;28;20040;-90
2023/12/25 09:00:49;;;;;;;4.68;4.57;;;;;;;;;;6312794;28;20135;-90
2023/12/25 09:03:51;;;;;;;5.32;4.93;;;;;;;;;;6323930;28;20062;-90
2023/12/25 09:06:55;;;;;;;4.50;4.40;;;;;;;;;;6315570;28;20044;-91
2023/12/25 09:09:58;;;;;;;4.63;4.53;;;;;;;;;;6301997;28;20048;-90
2023/12/25 09:12:59;;;;;;;4.75;4.65;;;;;;;;;;6307698;28;20071;-91
2023/12/25 09:16:01;;;;;;;4.60;4.50;;;;;;;;;;6323574;28;20077;-92
2023/12/25 09:19:03;;;;;;;5.47;5.10;;;;;;;;;;6316301;28;20052;-91
2023/12/25 09:22:06;;;;;;;6.20;5.85;;;;;;;;;;6317253;28;20032;-92
2023/12/25 09:25:08;;;;;;;5.13;5.00;;;;;;;;;;6300100;28;20040;-91
2023/12/25 09:28:11;;;;;;;4.50;4.40;;;;;;;;;;6305897;28;20043;-92
2023/12/25 09:31:13;;;;;;;6.15;5.75;;;;;;;;;;6324357;28;20040;-92
2023/12/25 09:34:15;;;;;;;4.35;4.25;;;;;;;;;;6318511;28;20039;-92
2023/12/25 09:37:18;;;;;;;4.75;4.65;;;;;;;;;;6324350;28;20560;-92
2023/12/25 09:40:25;;;;;;;4.53;4.35;;;;;;;;;;6316338;28;20052;-92
2023/12/25 09:43:27;;;;;;;5.18;5.00;;;;;;;;;;6305653;28;20059;-91
2023/12/25 09:46:29;;;;;;;17.33;5.78;;;;;;;;;;6284992;28;20417;-92
2023/12/25 09:49:34;;;;;;;5.57;5.03;;;;;;;;;;6301086;28;20611;-92
2023/12/25 09:52:36;;;;;;;5.47;5.32;;;;;;;;;;6306948;28;20039;-93
2023/12/25 09:55:38;;;;;;;5.47;5.18;;;;;;;;;;6318832;28;20040;-92
2023/12/25 09:58:40;;;;;;;4.25;4.15;;;;;;;;;;6321061;28;20047;-92
2023/12/25 10:01:42;;;;;;;5.72;5.53;;;;;;;;;;6310704;28;20425;-92
2023/12/25 10:04:44;;;;;;;4.82;4.63;;;;;;;;;;6300469;28;20072;-92
2023/12/25 10:07:46;;;;;;;5.43;5.13;;;;;;;;;;6320092;28;20044;-93
2023/12/25 10:10:48;;;;;;;4.28;4.18;;;;;;;;;;6301258;28;20056;-87
2023/12/25 10:13:49;;;;;;;5.32;5.10;;;;;;;;;;6317648;28;20658;-88
2023/12/25 10:16:56;;;;;;;4.57;4.47;;;;;;;;;;6299300;28;20047;-87
2023/12/25 10:19:58;;;;;;;4.18;4.07;;;;;;;;;;6322806;28;20047;-87
2023/12/25 10:23:00;;;;;;;5.57;5.07;;;;;;;;;;6321489;28;20386;-87
2023/12/25 10:26:28;;;;;;;4.18;4.07;;;;;;;;;;6316313;28;20037;-87
2023/12/25 10:29:33;;;;;;;5.95;5.43;;;;;;;;;;6322426;28;20130;-89
2023/12/25 10:32:35;;;;;;;6.40;4.57;;;;;;;;;;6297376;28;20040;-88
2023/12/25 10:35:37;;;;;;;5.75;5.55;;;;;;;;;;6316162;28;20146;-88
2023/12/25 10:38:54;;;;;;;7.65;4.63;;;;;;;;;;6305015;28;20700;-88
2023/12/25 10:41:56;;;;;;;5.35;5.15;;;;;;;;;;6312009;28;20044;-89
2023/12/25 10:44:58;;;;;;;10.07;4.93;;;;;;;;;;6321851;28;20477;-87
2023/12/25 10:48:03;;;;;;;4.60;4.40;;;;;;;;;;6321228;28;20055;-86
2023/12/25 10:51:23;;;;;;;4.82;4.53;;;;;;;;;;6295814;28;20039;-88
2023/12/25 10:54:28;;;;;;;4.30;4.20;;;;;;;;;;6320457;28;20044;-89
2023/12/25 10:57:30;;;;;;;5.00;4.80;;;;;;;;;;6279553;28;20429;-88
2023/12/25 11:00:35;;;;;;;6.22;6.03;;;;;;;;;;6319260;28;20054;-89
2023/12/25 11:03:37;;;;;;;4.88;4.68;;;;;;;;;;6313402;28;20110;-88
2023/12/25 11:06:40;;;;;;;4.47;4.30;;;;;;;;;;6312199;28;20034;-88
2023/12/25 11:09:42;;;;;;;5.43;5.22;;;;;;;;;;6267988;28;20068;-88
2023/12/25 11:12:45;;;;;;;5.88;5.57;;;;;;;;;;6294881;28;20425;-88
2023/12/25 11:15:48;;;;;;;4.50;4.40;;;;;;;;;;6301653;28;20866;-89
2023/12/25 11:18:50;;;;;;;4.88;4.78;;;;;;;;;;6286524;28;20592;-90
2023/12/25 11:21:56;;;;;;;6.32;5.93;;;;;;;;;;6305989;28;20051;-89
2023/12/25 11:24:59;;;;;;;6.38;6.18;;;;;;;;;;6301948;28;20539;-89
2023/12/25 11:28:02;;;;;;;4.70;4.60;;;;;;;;;;6287553;28;20085;-89
2023/12/25 11:31:04;;;;;;;4.00;3.90;;;;;;;;;;6317049;28;20039;-89
2023/12/25 11:34:29;;;;;;;4.40;4.30;;;;;;;;;;6311646;28;20196;-89
2023/12/25 11:37:32;;;;;;;5.35;5.15;;;;;;;;;;6308550;28;20040;-90
2023/12/25 11:40:39;;;;;;;5.47;5.28;;;;;;;;;;6311654;28;20085;-89
2023/12/25 11:43:41;;;;;;;4.55;4.45;;;;;;;;;;6304603;28;20465;-90
2023/12/25 11:46:48;;;;;;;5.32;5.13;;;;;;;;;;6313333;28;20044;-90
2023/12/25 11:49:50;;;;;;;7.20;6.80;;;;;;;;;;6295701;28;20044;-89
2023/12/25 11:52:56;;;;;;;4.90;4.70;;;;;;;;;;6300915;28;20074;-89
2023/12/25 11:55:57;;;;;;;5.00;4.70;;;;;;;;;;6308793;28;20225;-89
2023/12/25 11:59:00;;;;;;;5.65;5.38;;;;;;;;;;6306730;28;20047;-89
2023/12/25 12:02:06;;;;;;;5.00;4.82;;;;;;;;;;6292249;28;20028;-90
2023/12/25 12:05:08;;;;;;;5.97;5.68;;;;;;;;;;6299936;28;20044;-89
2023/12/25 12:08:10;;;;;;;7.60;7.38;;;;;;;;;;6301835;28;20032;-89
2023/12/25 12:11:15;;;;;;;4.70;4.32;;;;;;;;;;6310291;28;20032;-89
2023/12/25 12:14:16;;;;;;;4.82;4.72;;;;;;;;;;6271394;28;20617;-89
2023/12/25 12:17:19;;;;;;;6.45;6.03;;;;;;;;;;6309634;28;20220;-89
2023/12/25 12:20:21;;;;;;;9.23;8.93;;;;;;;;;;6310026;28;20784;-90
2023/12/25 12:23:31;;;;;;;6.07;5.60;;;;;;;;;;6297922;28;20186;-89
2023/12/25 12:26:33;;;;;;;4.50;4.40;;;;;;;;;;6294346;28;20653;-88
2023/12/25 12:29:35;;;;;;;4.80;4.60;;;;;;;;;;6317698;28;20503;-88
2023/12/25 12:32:37;;;;;;;5.38;5.20;;;;;;;;;;6309702;28;20039;-90
2023/12/25 12:35:39;;;;;;;5.13;5.00;;;;;;;;;;6278341;28;20515;-89
2023/12/25 12:38:42;;;;;;;4.85;4.68;;;;;;;;;;6307627;28;20036;-89
2023/12/25 12:41:44;;;;;;;4.40;4.30;;;;;;;;;;6314932;28;20055;-89
2023/12/25 12:44:48;;;;;;;5.25;4.90;;;;;;;;;;6318144;28;20402;-89
2023/12/25 12:48:22;;;;;;;11.32;5.15;;;;;;;;;;6305185;28;20136;-90
2023/12/25 12:51:25;;;;;;;4.63;4.53;;;;;;;;;;6312361;28;20038;-89
2023/12/25 12:54:27;;;;;;;5.10;4.78;;;;;;;;;;6297449;28;20048;-89
2023/12/25 12:57:29;;;;;;;5.15;5.05;;;;;;;;;;6303991;28;20606;-89
2023/12/25 13:00:30;;;;;;;4.35;4.25;;;;;;;;;;6299119;28;20053;-89
2023/12/25 13:03:32;;;;;;;4.13;4.03;;;;;;;;;;6319126;28;20040;-88
2023/12/25 13:06:34;;;;;;;4.65;4.55;;;;;;;;;;6313170;28;20040;-89
2023/12/25 13:09:37;;;;;;;4.78;4.47;;;;;;;;;;6316453;28;20073;-88
2023/12/25 13:12:39;;;;;;;4.85;4.65;;;;;;;;;;6285629;28;20588;-88
2023/12/25 13:15:41;;;;;;;4.72;4.47;;;;;;;;;;6321019;28;20120;-88
2023/12/25 13:18:43;;;;;;;4.18;4.07;;;;;;;;;;6318268;28;20132;-89
2023/12/25 13:21:45;;;;;;;4.53;4.32;;;;;;;;;;6313870;28;20051;-88
2023/12/25 13:24:47;;;;;;;5.75;5.55;;;;;;;;;;6298297;28;20149;-88
2023/12/25 13:27:49;;;;;;;3.90;3.80;;;;;;;;;;6305984;28;20060;-88
2023/12/25 13:30:50;;;;;;;4.80;4.60;;;;;;;;;;6311017;28;20538;-88
2023/12/25 13:33:52;;;;;;;5.70;4.63;;;;;;;;;;6321457;28;20414;-88
2023/12/25 13:36:54;;;;;;;5.32;5.15;;;;;;;;;;6320476;28;20460;-87
2023/12/25 13:39:59;;;;;;;4.38;4.15;;;;;;;;;;6307950;28;20075;-88
2023/12/25 13:43:01;;;;;;;5.45;4.95;;;;;;;;;;6320666;28;20043;-87
2023/12/25 13:46:04;;;;;;;4.88;4.70;;;;;;;;;;6313502;28;20101;-87
2023/12/25 13:49:06;;;;;;;5.20;5.00;;;;;;;;;;6311531;28;20482;-88
2023/12/25 13:52:08;;;;;;;4.13;4.03;;;;;;;;;;6317314;28;20044;-88
2023/12/25 13:55:10;;;;;;;3.97;3.88;;;;;;;;;;6328870;28;20035;-88
2023/12/25 13:58:13;;;;;;;5.75;5.55;;;;;;;;;;6318059;28;20043;-88
2023/12/25 14:01:15;;;;;;;4.43;4.32;;;;;;;;;;6307896;28;20161;-88
2023/12/25 14:04:16;;;;;;;5.03;4.82;;;;;;;;;;6326316;28;20565;-88
2023/12/25 14:07:20;;;;;;;4.50;4.40;;;;;;;;;;6296921;28;20058;-87
2023/12/25 14:10:23;;;;;;;4.82;4.72;;;;;;;;;;6318857;28;20166;-88
2023/12/25 14:13:24;;;;;;;4.18;4.07;;;;;;;;;;6325629;28;20367;-87
2023/12/25 14:16:26;;;;;;;5.28;5.07;;;;;;;;;;6327248;28;20056;-87
2023/12/25 14:19:28;;;;;;;4.25;4.15;;;;;;;;;;6313131;28;20063;-85
2023/12/25 14:22:30;;;;;;;4.53;4.32;;;;;;;;;;6321793;28;20048;-85
2023/12/25 14:25:32;;;;;;;4.20;4.10;;;;;;;;;;6310469;28;20097;-86
2023/12/25 14:28:35;;;;;;;4.07;3.97;;;;;;;;;;6318822;28;20123;-86
2023/12/25 14:31:37;;;;;;;4.55;4.45;;;;;;;;;;6302587;28;20051;-85
2023/12/25 14:34:38;;;;;;;4.80;4.70;;;;;;;;;;6315449;28;20040;-86
2023/12/25 14:37:40;;;;;;;5.53;5.13;;;;;;;;;;6320735;28;20101;-86
2023/12/25 14:40:42;;;;;;;4.70;4.60;;;;;;;;;;6318763;28;20246;-86
2023/12/25 14:43:46;;;;;;;4.30;4.20;;;;;;;;;;6315426;28;20050;-86
2023/12/25 14:46:48;;;;;;;4.15;4.05;;;;;;;;;;6312410;28;20035;-86
2023/12/25 14:49:49;;;;;;;4.78;4.68;;;;;;;;;;6308762;28;20043;-86
2023/12/25 14:52:52;;;;;;;5.63;5.43;;;;;;;;;;6327624;28;20119;-85
2023/12/25 14:55:54;;;;;;;5.30;5.00;;;;;;;;;;6308167;28;20075;-85
2023/12/25 14:58:56;;;;;;;4.63;4.50;;;;;;;;;;6325068;28;20063;-88
2023/12/25 15:01:59;;;;;;;4.97;4.78;;;;;;;;;;6304816;28;20036;-88
2023/12/25 15:05:01;;;;;;;4.95;4.85;;;;;;;;;;6323359;28;20050;-88
2023/12/25 15:08:03;;;;;;;5.65;5.35;;;;;;;;;;6320324;28;20594;-88
2023/12/25 15:11:08;;;;;;;5.05;4.85;;;;;;;;;;6328660;28;20553;-88
2023/12/25 15:14:13;;;;;;;4.78;4.68;;;;;;;;;;6324760;28;20047;-88
2023/12/25 15:17:15;;;;;;;6.22;5.93;;;;;;;;;;6317386;28;20113;-88
2023/12/25 15:20:16;;;;;;;5.63;5.32;;;;;;;;;;6292362;28;20410;-88
2023/12/25 15:23:18;;;;;;;5.38;4.85;;;;;;;;;;6322419;28;20406;-88
2023/12/25 15:26:20;;;;;;;4.32;4.22;;;;;;;;;;6315684;28;20132;-88
2023/12/25 15:29:27;;;;;;;4.38;4.20;;;;;;;;;;6316346;28;20041;-89
2023/12/25 15:32:30;;;;;;;4.80;4.60;;;;;;;;;;6310028;28;20048;-88
2023/12/25 15:35:32;;;;;;;5.43;5.25;;;;;;;;;;6321153;28;20044;-88
2023/12/25 15:38:33;;;;;;;5.90;5.70;;;;;;;;;;6331192;28;20058;-87
2023/12/25 15:41:35;;;;;;;4.53;4.43;;;;;;;;;;6331003;28;20036;-87
2023/12/25 15:44:38;;;;;;;4.57;4.47;;;;;;;;;;6317343;28;20058;-87
2023/12/25 15:47:39;;;;;;;5.05;4.75;;;;;;;;;;6316286;28;20044;-86
2023/12/25 15:50:41;;;;;;;4.65;4.55;;;;;;;;;;6317680;28;20131;-86
2023/12/25 15:53:43;;;;;;;4.75;4.65;;;;;;;;;;6324625;28;20045;-87
2023/12/25 15:56:45;;;;;;;4.80;4.70;;;;;;;;;;6297683;28;20075;-86
2023/12/25 15:59:47;;;;;;;4.43;4.32;;;;;;;;;;6325390;28;20040;-86
2023/12/25 16:02:48;;;;;;;5.05;4.85;;;;;;;;;;6313912;28;20140;-86
2023/12/25 16:05:50;;;;;;;4.53;4.43;;;;;;;;;;6315702;28;20035;-87
2023/12/25 16:08:53;;;;;;;6.15;5.95;;;;;;;;;;6309484;28;20062;-85
2023/12/25 16:11:55;;;;;;;4.20;4.10;;;;;;;;;;6297308;28;20043;-87
2023/12/25 16:14:58;;;;;;;4.40;4.30;;;;;;;;;;6320764;28;20305;-87
2023/12/25 16:18:00;;;;;;;3.88;3.78;;;;;;;;;;6311486;28;20040;-86
2023/12/25 16:21:02;;;;;;;4.82;4.72;;;;;;;;;;6315568;28;20032;-87
2023/12/25 16:24:05;;;;;;;4.90;4.80;;;;;;;;;;6312778;28;20112;-87
2023/12/25 16:27:07;;;;;;;5.28;5.07;;;;;;;;;;6319636;28;20508;-87
2023/12/25 16:30:09;;;;;;;4.65;4.55;;;;;;;;;;6311017;28;20050;-86
2023/12/25 16:33:12;;;;;;;4.70;4.60;;;;;;;;;;6314879;28;20169;-86
2023/12/25 16:36:15;;;;;;;5.35;5.20;;;;;;;;;;6301540;28;20039;-86
2023/12/25 16:39:17;;;;;;;4.30;4.20;;;;;;;;;;6319647;28;20375;-86
2023/12/25 16:42:19;;;;;;;5.13;4.93;;;;;;;;;;6318174;28;20048;-86
2023/12/25 16:45:20;;;;;;;4.68;4.57;;;;;;;;;;6323698;28;20039;-86
2023/12/25 16:48:22;;;;;;;6.07;5.88;;;;;;;;;;6313904;28;20039;-86
2023/12/25 16:51:24;;;;;;;5.20;5.00;;;;;;;;;;6303028;28;20047;-88
2023/12/25 16:54:27;;;;;;;4.78;4.68;;;;;;;;;;6294314;28;20044;-88
2023/12/25 16:57:29;;;;;;;5.50;5.30;;;;;;;;;;6321544;28;20047;-88
2023/12/25 17:00:30;;;;;;;5.03;4.82;;;;;;;;;;6311083;28;20520;-88
2023/12/25 17:03:32;;;;;;;5.53;5.32;;;;;;;;;;6280680;28;20057;-88
2023/12/25 17:06:34;;;;;;;5.47;5.22;;;;;;;;;;6308251;28;20044;-88
2023/12/25 17:09:35;;;;;;;5.57;5.38;;;;;;;;;;6316485;28;20051;-88
2023/12/25 17:12:37;;;;;;;5.18;4.97;;;;;;;;;;6305292;28;20142;-89
2023/12/25 17:15:40;;;;;;;4.95;4.75;;;;;;;;;;6313168;28;20051;-88
2023/12/25 17:18:41;;;;;;;5.05;4.85;;;;;;;;;;6312966;28;20402;-88
2023/12/25 17:21:47;;;;;;;5.20;5.05;;;;;;;;;;6315330;28;20044;-89
2023/12/25 17:24:49;;;;;;;4.65;4.55;;;;;;;;;;6324969;28;20060;-87
2023/12/25 17:27:51;;;;;;;4.57;4.47;;;;;;;;;;6323545;28;20508;-87
2023/12/25 17:30:53;;;;;;;5.32;5.13;;;;;;;;;;6303065;28;20056;-88
2023/12/25 17:33:55;;;;;;;4.93;4.82;;;;;;;;;;6321934;28;20141;-87
2023/12/25 17:36:57;;;;;;;5.13;5.00;;;;;;;;;;6315990;28;20035;-87
2023/12/25 17:39:58;;;;;;;5.50;5.30;;;;;;;;;;6326270;28;20446;-88
2023/12/25 17:43:01;;;;;;;5.25;4.78;;;;;;;;;;6319960;28;20779;-88
2023/12/25 17:46:03;;;;;;;5.95;5.65;;;;;;;;;;6274270;28;20512;-89
2023/12/25 17:49:05;;;;;;;5.72;5.40;;;;;;;;;;6322938;28;20044;-89
2023/12/25 17:52:12;;;;;;;5.30;5.10;;;;;;;;;;6319652;28;20408;-88
2023/12/25 17:55:13;;;;;;;5.45;5.25;;;;;;;;;;6321420;28;20181;-89
2023/12/25 17:58:15;;;;;;;4.80;4.60;;;;;;;;;;6318227;28;20374;-95
2023/12/25 18:01:17;;;;;;;4.93;4.72;;;;;;;;;;6323862;28;20070;-94
2023/12/25 18:04:20;;;;;;;4.90;4.35;;;;;;;;;;6310581;28;20047;-93
2023/12/25 18:07:22;;;;;;;4.55;4.45;;;;;;;;;;6328431;28;20039;-95
2023/12/25 18:10:24;;;;;;;5.05;4.95;;;;;;;;;;6327727;28;20054;-94
2023/12/25 18:13:27;;;;;;;4.20;4.10;;;;;;;;;;6324845;28;20387;-95
2023/12/25 18:16:29;;;;;;;4.65;4.32;;;;;;;;;;6323473;28;20123;-94